Time;durP1;ratioP1;P1;durP2;ratioP2;P2;SDS_P1;SDS_P2;PMS_P1;PMS_P2;Temp;Humidity;BMP_temperature;BMP_pressure;BME280_temperature;BME280_humidity;BME280_pressure;Samples;Min_cycle;Max_cycle;Signal;HPM_P1;HPM_P2
2023/02/24 19:03:37;;;;;;;32.10;7.88;;;;;;;10.67;100.00;101675.03;5120903;27;20402;-79
2023/02/24 19:06:03;;;;;;;22.20;7.13;;;;;;;11.84;100.00;101667.97;5100961;28;20024;-63
2023/02/24 19:08:28;;;;;;;28.60;8.43;;;;;;;12.97;100.00;101670.25;5098748;28;20032;-68
2023/02/24 19:10:55;;;;;;;39.08;11.35;;;;;;;12.96;100.00;101668.63;5079825;28;20502;-77
2023/02/24 19:13:22;;;;;;;25.38;7.63;;;;;;;13.02;100.00;101676.44;5091660;28;20123;-74
2023/02/24 19:15:48;;;;;;;26.33;7.47;;;;;;;13.25;100.00;101687.53;5093473;28;20036;-64
2023/02/24 19:18:15;;;;;;;22.77;7.68;;;;;;;13.10;100.00;101674.91;5109940;28;20032;-64
2023/02/24 19:20:44;;;;;;;34.60;7.82;;;;;;;13.44;100.00;101679.13;5109246;28;20032;-63
2023/02/24 19:23:09;;;;;;;21.75;6.13;;;;;;;13.54;100.00;101670.69;5091789;28;20430;-64
2023/02/24 19:25:35;;;;;;;21.10;6.55;;;;;;;13.45;100.00;101667.03;5100521;28;20133;-64
2023/02/24 19:28:01;;;;;;;23.80;7.68;;;;;;;13.39;100.00;101673.78;5099366;28;20024;-64
2023/02/24 19:30:26;;;;;;;23.35;6.22;;;;;;;13.13;100.00;101673.47;5099675;28;20040;-64
2023/02/24 19:32:52;;;;;;;29.00;8.40;;;;;;;13.48;100.00;101685.63;5096180;28;20035;-63
2023/02/24 19:35:19;;;;;;;24.80;7.50;;;;;;;13.49;100.00;101699.06;5097699;28;20024;-75
2023/02/24 19:37:48;;;;;;;26.77;8.27;;;;;;;13.37;100.00;101711.69;5096752;28;20123;-64
2023/02/24 19:40:13;;;;;;;23.17;7.07;;;;;;;13.26;100.00;101716.59;5096396;28;20032;-65
2023/02/24 19:42:39;;;;;;;23.85;7.70;;;;;;;13.55;100.00;101718.97;5097024;28;20392;-66
2023/02/24 19:45:06;;;;;;;31.77;7.57;;;;;;;13.53;100.00;101711.06;5096897;28;20103;-64
2023/02/24 19:47:32;;;;;;;30.75;8.25;;;;;;;13.62;100.00;101713.88;5096170;28;20363;-64
2023/02/24 19:49:57;;;;;;;25.23;7.00;;;;;;;13.40;100.00;101711.91;5096934;28;20020;-64
2023/02/24 19:52:23;;;;;;;29.90;7.90;;;;;;;13.53;100.00;101710.25;5096879;28;20054;-64
2023/02/24 19:54:48;;;;;;;29.15;8.02;;;;;;;13.62;100.00;101702.88;5096158;28;20428;-71
2023/02/24 19:57:14;;;;;;;30.73;8.32;;;;;;;13.44;100.00;101712.88;5096215;28;20034;-65
2023/02/24 19:59:40;;;;;;;30.40;8.52;;;;;;;13.58;100.00;101707.38;5096880;28;20627;-64
2023/02/24 20:02:06;;;;;;;33.22;9.18;;;;;;;13.04;100.00;101715.34;5096139;28;20098;-63
2023/02/24 20:04:32;;;;;;;33.42;9.60;;;;;;;12.75;100.00;101729.38;5095884;28;20020;-64
2023/02/24 20:06:57;;;;;;;29.35;9.05;;;;;;;13.03;100.00;101727.44;5096513;28;20034;-65
2023/02/24 20:09:23;;;;;;;19.92;7.88;;;;;;;12.31;100.00;101734.56;5096523;28;20024;-65
2023/02/24 20:11:50;;;;;;;30.02;8.50;;;;;;;12.23;100.00;101734.13;5095982;28;20440;-64
2023/02/24 20:14:17;;;;;;;33.20;7.78;;;;;;;12.47;100.00;101738.69;5086597;28;20028;-64
2023/02/24 20:16:44;;;;;;;35.85;9.15;;;;;;;12.40;100.00;101738.25;5084005;28;20044;-64
2023/02/24 20:19:11;;;;;;;26.65;8.82;;;;;;;13.20;100.00;101735.09;5084233;28;20386;-64
2023/02/24 20:21:40;;;;;;;29.27;8.77;;;;;;;13.23;100.00;101748.22;5086246;28;20420;-65
2023/02/24 20:24:09;;;;;;;35.22;9.10;;;;;;;13.44;100.00;101742.28;5083428;28;20016;-64
2023/02/24 20:26:35;;;;;;;28.85;7.78;;;;;;;13.29;100.00;101741.47;5083901;28;20032;-64
2023/02/24 20:29:03;;;;;;;34.03;8.80;;;;;;;13.25;100.00;101740.47;5083381;28;20536;-64
2023/02/24 20:31:28;;;;;;;25.88;8.82;;;;;;;13.35;100.00;101752.34;5082087;28;20020;-64
2023/02/24 20:33:55;;;;;;;27.70;9.63;;;;;;;13.40;100.00;101744.84;5082038;28;20478;-74
2023/02/24 20:36:28;;;;;;;29.98;9.57;;;;;;;12.94;100.00;101761.41;5082740;28;20020;-64
2023/02/24 20:38:56;;;;;;;26.17;8.05;;;;;;;12.82;100.00;101747.34;5082284;28;21352;-64
2023/02/24 20:41:23;;;;;;;22.75;9.82;;;;;;;12.95;100.00;101743.81;5083247;28;20016;-65
2023/02/24 20:43:48;;;;;;;26.35;8.48;;;;;;;12.77;100.00;101745.50;5081774;28;20070;-64
2023/02/24 20:46:15;;;;;;;29.25;8.07;;;;;;;12.90;100.00;101752.13;5063631;28;20032;-69
2023/02/24 20:48:41;;;;;;;47.70;11.82;;;;;;;12.93;100.00;101748.81;5082519;28;20152;-64
2023/02/24 20:51:09;;;;;;;28.25;8.50;;;;;;;12.63;100.00;101737.28;5081724;28;20081;-64
2023/02/24 20:53:38;;;;;;;23.75;7.80;;;;;;;12.76;100.00;101736.47;5081801;28;20028;-72
2023/02/24 20:56:06;;;;;;;28.23;9.15;;;;;;;12.80;100.00;101736.69;5081720;28;20375;-64
2023/02/24 20:58:33;;;;;;;32.05;9.55;;;;;;;12.95;100.00;101746.56;5083412;28;20107;-71
2023/02/24 21:00:59;;;;;;;30.40;8.93;;;;;;;13.28;100.00;101756.31;5064140;28;20062;-64
2023/02/24 21:03:24;;;;;;;27.88;8.05;;;;;;;13.22;100.00;101770.44;5081724;28;20105;-65
2023/02/24 21:05:51;;;;;;;33.22;8.38;;;;;;;13.26;100.00;101775.03;5081767;28;20104;-64
2023/02/24 21:08:16;;;;;;;34.88;8.60;;;;;;;13.15;100.00;101779.09;5081746;28;20024;-64
2023/02/24 21:10:44;;;;;;;29.58;7.90;;;;;;;13.09;100.00;101774.81;5082083;28;20020;-77
2023/02/24 21:13:09;;;;;;;37.33;8.45;;;;;;;13.17;100.00;101779.59;5081491;28;20101;-64
2023/02/24 21:15:35;;;;;;;40.00;9.00;;;;;;;13.03;100.00;101778.78;5083147;28;20079;-64
2023/02/24 21:18:02;;;;;;;34.03;8.75;;;;;;;13.20;100.00;101780.94;5085648;28;20028;-75
2023/02/24 21:20:27;;;;;;;28.23;10.20;;;;;;;13.46;100.00;101781.22;5088901;28;20019;-87
2023/02/24 21:22:53;;;;;;;26.27;9.80;;;;;;;13.69;100.00;101782.13;5086829;28;20024;-94
2023/02/24 21:25:19;;;;;;;27.65;9.15;;;;;;;13.57;100.00;101777.94;5079390;28;20099;-69
2023/02/24 21:27:47;;;;;;;31.88;8.90;;;;;;;13.81;100.00;101777.69;5093276;28;20024;-88
2023/02/24 21:30:12;;;;;;;29.67;10.23;;;;;;;13.58;100.00;101779.56;5093545;28;20035;-87
2023/02/24 21:32:38;;;;;;;33.25;9.32;;;;;;;13.17;100.00;101776.03;5094007;28;20031;-86
2023/02/24 21:35:04;;;;;;;28.90;9.50;;;;;;;12.90;100.00;101772.16;5090578;28;20043;-80
2023/02/24 21:37:30;;;;;;;26.10;9.18;;;;;;;12.83;100.00;101770.91;5083942;28;20024;-72
2023/02/24 21:39:55;;;;;;;23.02;7.20;;;;;;;13.06;100.00;101786.38;5080298;28;20119;-79
2023/02/24 21:42:21;;;;;;;28.40;9.05;;;;;;;12.93;100.00;101790.75;5081601;28;20020;-74
2023/02/24 21:44:49;;;;;;;40.83;11.07;;;;;;;12.87;100.00;101797.44;5061918;28;20066;-73
2023/02/24 21:47:16;;;;;;;29.35;9.57;;;;;;;12.98;100.00;101800.81;5090207;28;20078;-81
2023/02/24 21:49:42;;;;;;;28.23;10.15;;;;;;;12.99;100.00;101805.16;5082454;28;20532;-83
2023/02/24 21:52:10;;;;;;;31.35;9.43;;;;;;;12.94;100.00;101819.81;5080554;28;20024;-83
2023/02/24 21:54:36;;;;;;;30.38;8.32;;;;;;;13.04;100.00;101818.81;5084739;28;20067;-69
2023/02/24 21:57:04;;;;;;;30.20;8.55;;;;;;;12.96;100.00;101823.06;5085173;28;20019;-84
2023/02/24 21:59:32;;;;;;;32.75;8.52;;;;;;;13.10;100.00;101819.53;5062373;28;20418;-80
2023/02/24 22:01:58;;;;;;;26.65;7.72;;;;;;;13.09;100.00;101823.41;5084581;28;20051;-83
2023/02/24 22:04:24;;;;;;;31.48;9.48;;;;;;;13.10;100.00;101822.28;5084692;28;20040;-87
2023/02/24 22:06:49;;;;;;;33.78;9.45;;;;;;;13.02;100.00;101826.53;5078107;28;20433;-83
2023/02/24 22:09:18;;;;;;;26.88;8.30;;;;;;;13.27;100.00;101823.31;5067475;28;20603;-77
2023/02/24 22:11:46;;;;;;;37.03;9.02;;;;;;;13.23;100.00;101836.03;5089096;28;20111;-84
2023/02/24 22:14:13;;;;;;;28.27;9.10;;;;;;;13.11;100.00;101832.13;5073414;28;20118;-77
2023/02/24 22:16:40;;;;;;;27.40;8.63;;;;;;;13.05;100.00;101828.66;5084114;28;20029;-89
2023/02/24 22:19:06;;;;;;;25.67;8.10;;;;;;;13.20;100.00;101836.63;5081538;28;20142;-89
2023/02/24 22:21:32;;;;;;;25.60;7.38;;;;;;;12.94;100.00;101844.50;5073973;28;20028;-82
2023/02/24 22:24:00;;;;;;;42.65;8.52;;;;;;;12.74;100.00;101847.59;5084468;28;20052;-78
2023/02/24 22:26:27;;;;;;;30.33;8.60;;;;;;;12.61;100.00;101843.69;5079893;28;20040;-79
2023/02/24 22:28:53;;;;;;;20.95;7.20;;;;;;;12.46;100.00;101844.75;5079827;28;20043;-73
2023/02/24 22:31:21;;;;;;;28.45;8.07;;;;;;;12.52;100.00;101842.75;5082436;28;20091;-78
2023/02/24 22:33:47;;;;;;;29.25;8.43;;;;;;;12.29;100.00;101835.44;5080670;28;20028;-77
2023/02/24 22:36:17;;;;;;;30.90;7.85;;;;;;;12.29;100.00;101849.16;5079944;28;20038;-80
2023/02/24 22:38:44;;;;;;;33.10;9.25;;;;;;;12.28;100.00;101848.34;5083213;28;20028;-79
2023/02/24 22:41:13;;;;;;;31.95;8.63;;;;;;;11.94;100.00;101851.31;5084021;28;20579;-66
2023/02/24 22:43:38;;;;;;;33.03;8.07;;;;;;;12.20;100.00;101844.34;5081726;28;20040;-72
2023/02/24 22:46:08;;;;;;;23.58;7.20;;;;;;;12.11;100.00;101864.50;5085686;28;20097;-66
2023/02/24 22:48:35;;;;;;;27.33;8.25;;;;;;;11.96;100.00;101865.53;5080643;28;20074;-72
2023/02/24 22:51:03;;;;;;;20.25;7.25;;;;;;;11.96;100.00;101865.53;5085816;28;20020;-70
2023/02/24 22:53:31;;;;;;;32.08;8.05;;;;;;;12.26;100.00;101864.28;5084071;28;20024;-82
2023/02/24 22:55:57;;;;;;;24.48;8.75;;;;;;;12.31;100.00;101864.19;5085584;28;20039;-67
2023/02/24 22:58:23;;;;;;;26.90;8.15;;;;;;;12.42;100.00;101859.38;5084431;28;20482;-65
2023/02/24 23:00:50;;;;;;;29.63;7.88;;;;;;;12.80;100.00;101859.31;5063170;28;20036;-79
2023/02/24 23:03:22;;;;;;;35.22;8.82;;;;;;;12.58;100.00;101857.19;5082473;28;20056;-80
2023/02/24 23:06:00;;;;;;;31.25;7.55;;;;;;;12.65;100.00;101865.84;5085101;28;20043;-77
2023/02/24 23:08:27;;;;;;;25.40;7.93;;;;;;;12.55;100.00;101866.03;5083456;28;20028;-80
2023/02/24 23:10:54;;;;;;;22.10;7.68;;;;;;;12.34;100.00;101871.00;5089975;28;20093;-78
2023/02/24 23:13:20;;;;;;;24.10;7.25;;;;;;;12.29;100.00;101871.06;5088404;28;20051;-84
2023/02/24 23:15:50;;;;;;;38.30;9.95;;;;;;;12.44;100.00;101865.38;5088406;28;20371;-72
2023/02/24 23:18:16;;;;;;;31.67;8.07;;;;;;;12.64;100.00;101870.53;5072706;28;20024;-79
2023/02/24 23:20:43;;;;;;;23.05;8.18;;;;;;;12.54;100.00;101869.84;5090686;28;20265;-69
2023/02/24 23:23:09;;;;;;;37.05;8.93;;;;;;;12.37;100.00;101865.72;5092217;28;20532;-76
2023/02/24 23:25:37;;;;;;;28.63;7.80;;;;;;;12.13;100.00;101870.50;5090898;28;20047;-77
2023/02/24 23:28:04;;;;;;;23.38;7.35;;;;;;;11.95;100.00;101869.38;5091467;28;20052;-78
2023/02/24 23:30:29;;;;;;;27.58;8.48;;;;;;;12.08;100.00;101863.16;5091787;28;20031;-65
2023/02/24 23:32:56;;;;;;;25.13;8.52;;;;;;;12.29;100.00;101877.38;5082124;28;20656;-79
2023/02/24 23:35:21;;;;;;;27.17;8.48;;;;;;;12.31;100.00;101886.09;5091189;28;20070;-67
2023/02/24 23:37:47;;;;;;;35.90;8.80;;;;;;;12.36;100.00;101887.97;5082233;28;20356;-74
2023/02/24 23:40:13;;;;;;;29.60;9.20;;;;;;;12.42;100.00;101892.25;5072020;28;20363;-79
2023/02/24 23:42:42;;;;;;;18.00;7.43;;;;;;;12.39;100.00;101893.69;5071776;28;20025;-64
2023/02/24 23:45:09;;;;;;;22.13;7.65;;;;;;;12.42;100.00;101895.81;5071944;28;20402;-66
2023/02/24 23:47:36;;;;;;;32.03;9.25;;;;;;;12.39;100.00;101895.59;5080035;28;20020;-79
2023/02/24 23:50:02;;;;;;;30.98;8.43;;;;;;;12.39;100.00;101896.44;5077729;28;20031;-80
2023/02/24 23:52:27;;;;;;;24.48;7.55;;;;;;;12.37;100.00;101895.88;5075753;28;20025;-65
2023/02/24 23:54:53;;;;;;;30.02;8.50;;;;;;;12.36;100.00;101890.72;5075463;28;20024;-80
2023/02/24 23:57:22;;;;;;;28.20;8.20;;;;;;;12.34;100.00;101890.19;5088245;28;20023;-65
2023/02/24 23:59:47;;;;;;;26.27;7.40;;;;;;;12.25;100.00;101897.47;5095502;28;20460;-76
